Spokane/Felts Field, Washington
Current Conditions -  °F | °C
As of 8:03 PM on Tuesday 25 Nov 2014 (Local Time) from KSFF Reporting Station
Overcast Overcast  
Wind Chill: 36°   Ceiling: 1400
Heat Index: 36°   Visibility: 10mi
Dew Point: 33°   Wind: 0mph
Humidity: 89%   Direction: NA
Pressure: 30.2"   Gusts: NA
Location:  47.68°N, 117.32°W
Report Text: KSFF 260403Z AUTO 00000KT 10SM BKN014 OVC080 02/01 A3020 RMK AO2 T00220006
Loading
Personal Weather Stations






























Interactive Weather Map New forecast layout! Learn more

10-Day Weather Forecast

Advertisements
Track Severe Weather on mobile